sensor_id;sensor_type;location;lat;lon;timestamp;P1;durP1;ratioP1;P2;durP2;ratioP2
4754;SDS011;2391;47.212;7.542;2022-11-15T00:00:46;6.00;;;5.50;;
4754;SDS011;2391;47.212;7.542;2022-11-15T00:03:13;4.57;;;4.27;;
4754;SDS011;2391;47.212;7.542;2022-11-15T00:05:41;5.63;;;5.13;;
4754;SDS011;2391;47.212;7.542;2022-11-15T00:08:08;5.80;;;5.20;;
4754;SDS011;2391;47.212;7.542;2022-11-15T00:10:35;6.23;;;5.40;;
4754;SDS011;2391;47.212;7.542;2022-11-15T00:13:05;6.57;;;5.73;;
4754;SDS011;2391;47.212;7.542;2022-11-15T00:15:39;7.90;;;5.90;;
4754;SDS011;2391;47.212;7.542;2022-11-15T00:18:10;5.53;;;5.03;;
4754;SDS011;2391;47.212;7.542;2022-11-15T00:20:40;6.20;;;5.60;;
4754;SDS011;2391;47.212;7.542;2022-11-15T00:23:07;12.70;;;5.93;;
4754;SDS011;2391;47.212;7.542;2022-11-15T00:25:34;9.17;;;6.10;;
4754;SDS011;2391;47.212;7.542;2022-11-15T00:28:00;6.67;;;5.80;;
4754;SDS011;2391;47.212;7.542;2022-11-15T00:30:27;6.10;;;5.47;;
4754;SDS011;2391;47.212;7.542;2022-11-15T00:32:54;5.57;;;5.17;;
4754;SDS011;2391;47.212;7.542;2022-11-15T00:35:20;5.17;;;4.67;;
4754;SDS011;2391;47.212;7.542;2022-11-15T00:37:47;5.07;;;4.67;;
4754;SDS011;2391;47.212;7.542;2022-11-15T00:40:14;6.73;;;5.30;;
4754;SDS011;2391;47.212;7.542;2022-11-15T00:42:40;5.07;;;4.67;;
4754;SDS011;2391;47.212;7.542;2022-11-15T00:45:07;4.47;;;4.07;;
4754;SDS011;2391;47.212;7.542;2022-11-15T00:47:34;4.30;;;4.00;;
4754;SDS011;2391;47.212;7.542;2022-11-15T00:50:00;4.67;;;4.23;;
4754;SDS011;2391;47.212;7.542;2022-11-15T00:52:27;4.47;;;4.07;;
4754;SDS011;2391;47.212;7.542;2022-11-15T00:54:53;5.50;;;4.40;;
4754;SDS011;2391;47.212;7.542;2022-11-15T00:57:19;5.13;;;4.53;;
4754;SDS011;2391;47.212;7.542;2022-11-15T00:59:46;5.63;;;4.67;;
4754;SDS011;2391;47.212;7.542;2022-11-15T01:02:11;4.00;;;3.70;;
4754;SDS011;2391;47.212;7.542;2022-11-15T01:04:38;5.57;;;4.77;;
4754;SDS011;2391;47.212;7.542;2022-11-15T01:07:04;6.53;;;3.97;;
4754;SDS011;2391;47.212;7.542;2022-11-15T01:09:30;4.70;;;4.03;;
4754;SDS011;2391;47.212;7.542;2022-11-15T01:11:56;7.53;;;4.70;;
4754;SDS011;2391;47.212;7.542;2022-11-15T01:14:22;4.77;;;4.37;;
4754;SDS011;2391;47.212;7.542;2022-11-15T01:16:48;5.77;;;4.60;;
4754;SDS011;2391;47.212;7.542;2022-11-15T01:19:14;5.40;;;4.93;;
4754;SDS011;2391;47.212;7.542;2022-11-15T01:21:41;5.30;;;4.80;;
4754;SDS011;2391;47.212;7.542;2022-11-15T01:24:07;4.90;;;4.50;;
4754;SDS011;2391;47.212;7.542;2022-11-15T01:26:37;7.90;;;5.50;;
4754;SDS011;2391;47.212;7.542;2022-11-15T01:29:03;6.90;;;6.20;;
4754;SDS011;2391;47.212;7.542;2022-11-15T01:31:30;6.10;;;5.17;;
4754;SDS011;2391;47.212;7.542;2022-11-15T01:33:56;5.83;;;5.20;;
4754;SDS011;2391;47.212;7.542;2022-11-15T01:36:22;5.90;;;5.30;;
4754;SDS011;2391;47.212;7.542;2022-11-15T01:38:55;6.60;;;5.80;;
4754;SDS011;2391;47.212;7.542;2022-11-15T01:41:25;5.90;;;5.17;;
4754;SDS011;2391;47.212;7.542;2022-11-15T01:43:54;5.73;;;5.23;;
4754;SDS011;2391;47.212;7.542;2022-11-15T01:46:30;5.20;;;4.70;;
4754;SDS011;2391;47.212;7.542;2022-11-15T01:49:00;5.33;;;4.83;;
4754;SDS011;2391;47.212;7.542;2022-11-15T01:51:29;5.43;;;5.00;;
4754;SDS011;2391;47.212;7.542;2022-11-15T01:53:58;5.57;;;5.07;;
4754;SDS011;2391;47.212;7.542;2022-11-15T01:56:27;6.70;;;5.10;;
4754;SDS011;2391;47.212;7.542;2022-11-15T01:58:55;6.50;;;5.50;;
4754;SDS011;2391;47.212;7.542;2022-11-15T02:01:24;5.30;;;4.80;;
4754;SDS011;2391;47.212;7.542;2022-11-15T02:03:54;6.90;;;5.60;;
4754;SDS011;2391;47.212;7.542;2022-11-15T02:06:22;5.97;;;5.47;;
4754;SDS011;2391;47.212;7.542;2022-11-15T02:08:49;9.43;;;5.50;;
4754;SDS011;2391;47.212;7.542;2022-11-15T02:11:16;6.20;;;5.57;;
4754;SDS011;2391;47.212;7.542;2022-11-15T02:13:42;6.93;;;5.47;;
4754;SDS011;2391;47.212;7.542;2022-11-15T02:19:02;5.30;;;4.80;;
4754;SDS011;2391;47.212;7.542;2022-11-15T02:21:51;4.67;;;4.27;;
4754;SDS011;2391;47.212;7.542;2022-11-15T02:32:53;7.33;;;5.20;;
4754;SDS011;2391;47.212;7.542;2022-11-15T02:37:57;4.90;;;4.50;;
4754;SDS011;2391;47.212;7.542;2022-11-15T02:43:07;6.03;;;4.50;;
4754;SDS011;2391;47.212;7.542;2022-11-15T02:45:58;6.67;;;5.27;;
4754;SDS011;2391;47.212;7.542;2022-11-15T02:48:23;5.40;;;4.90;;
4754;SDS011;2391;47.212;7.542;2022-11-15T02:50:51;7.90;;;5.60;;
4754;SDS011;2391;47.212;7.542;2022-11-15T02:53:17;5.13;;;4.63;;
4754;SDS011;2391;47.212;7.542;2022-11-15T02:55:46;5.70;;;5.10;;
4754;SDS011;2391;47.212;7.542;2022-11-15T03:06:45;4.70;;;4.30;;
4754;SDS011;2391;47.212;7.542;2022-11-15T03:12:04;5.53;;;4.40;;
4754;SDS011;2391;47.212;7.542;2022-11-15T03:14:36;4.60;;;4.20;;
4754;SDS011;2391;47.212;7.542;2022-11-15T03:17:25;5.20;;;4.67;;
4754;SDS011;2391;47.212;7.542;2022-11-15T03:19:57;4.20;;;3.90;;
4754;SDS011;2391;47.212;7.542;2022-11-15T03:22:26;4.73;;;4.20;;
4754;SDS011;2391;47.212;7.542;2022-11-15T03:24:58;4.17;;;3.87;;
4754;SDS011;2391;47.212;7.542;2022-11-15T03:27:29;4.07;;;3.70;;
4754;SDS011;2391;47.212;7.542;2022-11-15T03:30:00;4.60;;;4.30;;
4754;SDS011;2391;47.212;7.542;2022-11-15T03:32:30;4.57;;;4.23;;
4754;SDS011;2391;47.212;7.542;2022-11-15T03:35:10;7.17;;;4.00;;
4754;SDS011;2391;47.212;7.542;2022-11-15T03:40:40;4.60;;;3.93;;
4754;SDS011;2391;47.212;7.542;2022-11-15T03:43:15;4.23;;;3.70;;
4754;SDS011;2391;47.212;7.542;2022-11-15T03:45:55;4.73;;;4.33;;
4754;SDS011;2391;47.212;7.542;2022-11-15T03:48:24;4.33;;;3.80;;
4754;SDS011;2391;47.212;7.542;2022-11-15T03:50:53;4.50;;;4.10;;
4754;SDS011;2391;47.212;7.542;2022-11-15T03:53:20;5.23;;;4.47;;
4754;SDS011;2391;47.212;7.542;2022-11-15T03:55:46;6.50;;;3.90;;
4754;SDS011;2391;47.212;7.542;2022-11-15T03:58:12;4.33;;;4.03;;
4754;SDS011;2391;47.212;7.542;2022-11-15T04:00:39;7.00;;;4.67;;
4754;SDS011;2391;47.212;7.542;2022-11-15T04:03:05;5.17;;;4.77;;
4754;SDS011;2391;47.212;7.542;2022-11-15T04:05:33;4.87;;;4.53;;
4754;SDS011;2391;47.212;7.542;2022-11-15T04:07:59;4.93;;;4.57;;
4754;SDS011;2391;47.212;7.542;2022-11-15T04:10:26;10.10;;;4.60;;
4754;SDS011;2391;47.212;7.542;2022-11-15T04:12:52;5.83;;;5.33;;
4754;SDS011;2391;47.212;7.542;2022-11-15T04:15:19;6.50;;;5.23;;
4754;SDS011;2391;47.212;7.542;2022-11-15T04:17:51;6.63;;;5.53;;
4754;SDS011;2391;47.212;7.542;2022-11-15T04:20:21;6.70;;;5.67;;
4754;SDS011;2391;47.212;7.542;2022-11-15T04:26:03;7.53;;;5.17;;
4754;SDS011;2391;47.212;7.542;2022-11-15T04:28:32;5.43;;;5.03;;
4754;SDS011;2391;47.212;7.542;2022-11-15T04:30:59;6.90;;;5.50;;
4754;SDS011;2391;47.212;7.542;2022-11-15T04:33:25;7.60;;;5.73;;
4754;SDS011;2391;47.212;7.542;2022-11-15T04:35:52;5.33;;;4.83;;
4754;SDS011;2391;47.212;7.542;2022-11-15T04:38:36;5.30;;;4.80;;
4754;SDS011;2391;47.212;7.542;2022-11-15T04:41:03;7.23;;;5.03;;
4754;SDS011;2391;47.212;7.542;2022-11-15T04:43:29;6.43;;;5.20;;
4754;SDS011;2391;47.212;7.542;2022-11-15T04:45:55;7.60;;;5.23;;
4754;SDS011;2391;47.212;7.542;2022-11-15T04:48:21;4.93;;;4.53;;
4754;SDS011;2391;47.212;7.542;2022-11-15T04:50:48;5.00;;;4.50;;
4754;SDS011;2391;47.212;7.542;2022-11-15T04:53:14;5.73;;;4.90;;
4754;SDS011;2391;47.212;7.542;2022-11-15T04:55:43;4.53;;;4.13;;
4754;SDS011;2391;47.212;7.542;2022-11-15T04:58:12;5.40;;;4.40;;
4754;SDS011;2391;47.212;7.542;2022-11-15T05:00:38;6.77;;;4.20;;
4754;SDS011;2391;47.212;7.542;2022-11-15T05:03:05;5.23;;;4.83;;
4754;SDS011;2391;47.212;7.542;2022-11-15T05:05:50;4.27;;;3.90;;
4754;SDS011;2391;47.212;7.542;2022-11-15T05:08:16;5.17;;;4.67;;
4754;SDS011;2391;47.212;7.542;2022-11-15T05:10:42;5.40;;;4.80;;
4754;SDS011;2391;47.212;7.542;2022-11-15T05:13:09;5.70;;;5.17;;
4754;SDS011;2391;47.212;7.542;2022-11-15T05:15:35;5.77;;;5.27;;
4754;SDS011;2391;47.212;7.542;2022-11-15T05:18:01;8.37;;;5.03;;
4754;SDS011;2391;47.212;7.542;2022-11-15T05:20:28;5.67;;;5.17;;
4754;SDS011;2391;47.212;7.542;2022-11-15T05:22:55;8.70;;;5.33;;
4754;SDS011;2391;47.212;7.542;2022-11-15T05:25:21;6.17;;;5.57;;
4754;SDS011;2391;47.212;7.542;2022-11-15T05:27:48;5.50;;;5.00;;
4754;SDS011;2391;47.212;7.542;2022-11-15T05:30:15;5.70;;;5.20;;
4754;SDS011;2391;47.212;7.542;2022-11-15T05:32:42;6.20;;;5.70;;
4754;SDS011;2391;47.212;7.542;2022-11-15T05:35:11;7.77;;;5.40;;
4754;SDS011;2391;47.212;7.542;2022-11-15T05:37:39;6.23;;;5.57;;
4754;SDS011;2391;47.212;7.542;2022-11-15T05:40:07;6.40;;;5.77;;
4754;SDS011;2391;47.212;7.542;2022-11-15T05:42:34;6.57;;;5.87;;
4754;SDS011;2391;47.212;7.542;2022-11-15T05:45:00;5.80;;;5.30;;
4754;SDS011;2391;47.212;7.542;2022-11-15T05:47:29;5.63;;;5.07;;
4754;SDS011;2391;47.212;7.542;2022-11-15T05:49:56;6.50;;;5.90;;
4754;SDS011;2391;47.212;7.542;2022-11-15T05:52:24;6.13;;;5.53;;
4754;SDS011;2391;47.212;7.542;2022-11-15T05:54:53;6.70;;;5.90;;
4754;SDS011;2391;47.212;7.542;2022-11-15T05:57:21;6.37;;;5.60;;
4754;SDS011;2391;47.212;7.542;2022-11-15T05:59:47;5.70;;;5.10;;
4754;SDS011;2391;47.212;7.542;2022-11-15T06:02:13;5.47;;;4.97;;
4754;SDS011;2391;47.212;7.542;2022-11-15T06:04:40;7.73;;;5.80;;
4754;SDS011;2391;47.212;7.542;2022-11-15T06:07:06;7.13;;;4.93;;
4754;SDS011;2391;47.212;7.542;2022-11-15T06:09:32;5.43;;;4.93;;
4754;SDS011;2391;47.212;7.542;2022-11-15T06:11:58;6.17;;;5.63;;
4754;SDS011;2391;47.212;7.542;2022-11-15T06:14:25;7.73;;;5.50;;
4754;SDS011;2391;47.212;7.542;2022-11-15T06:16:51;5.40;;;4.90;;
4754;SDS011;2391;47.212;7.542;2022-11-15T06:19:17;5.40;;;4.90;;
4754;SDS011;2391;47.212;7.542;2022-11-15T06:21:43;5.20;;;4.70;;
4754;SDS011;2391;47.212;7.542;2022-11-15T06:24:09;6.07;;;5.47;;
4754;SDS011;2391;47.212;7.542;2022-11-15T06:26:36;5.87;;;5.33;;
4754;SDS011;2391;47.212;7.542;2022-11-15T06:29:02;6.40;;;4.90;;
4754;SDS011;2391;47.212;7.542;2022-11-15T06:31:29;5.83;;;5.10;;
4754;SDS011;2391;47.212;7.542;2022-11-15T06:33:56;5.30;;;4.80;;
4754;SDS011;2391;47.212;7.542;2022-11-15T06:36:22;5.90;;;5.33;;
4754;SDS011;2391;47.212;7.542;2022-11-15T06:38:48;5.90;;;5.13;;
4754;SDS011;2391;47.212;7.542;2022-11-15T06:41:14;5.03;;;4.60;;
4754;SDS011;2391;47.212;7.542;2022-11-15T06:43:42;5.30;;;4.83;;
4754;SDS011;2391;47.212;7.542;2022-11-15T06:46:08;4.97;;;4.57;;
4754;SDS011;2391;47.212;7.542;2022-11-15T06:48:34;6.37;;;5.77;;
4754;SDS011;2391;47.212;7.542;2022-11-15T06:51:04;6.33;;;4.70;;
4754;SDS011;2391;47.212;7.542;2022-11-15T06:53:31;5.40;;;4.90;;
4754;SDS011;2391;47.212;7.542;2022-11-15T06:55:58;5.70;;;5.13;;
4754;SDS011;2391;47.212;7.542;2022-11-15T06:58:27;4.90;;;4.47;;
4754;SDS011;2391;47.212;7.542;2022-11-15T07:00:53;5.27;;;4.77;;
4754;SDS011;2391;47.212;7.542;2022-11-15T07:03:20;4.77;;;4.37;;
4754;SDS011;2391;47.212;7.542;2022-11-15T07:05:53;8.20;;;4.80;;
4754;SDS011;2391;47.212;7.542;2022-11-15T07:08:21;5.30;;;4.80;;
4754;SDS011;2391;47.212;7.542;2022-11-15T07:10:48;5.03;;;4.57;;
4754;SDS011;2391;47.212;7.542;2022-11-15T07:13:15;5.83;;;5.27;;
4754;SDS011;2391;47.212;7.542;2022-11-15T07:15:41;5.67;;;5.13;;
4754;SDS011;2391;47.212;7.542;2022-11-15T07:18:07;5.23;;;4.77;;
4754;SDS011;2391;47.212;7.542;2022-11-15T07:20:34;5.70;;;4.97;;
4754;SDS011;2391;47.212;7.542;2022-11-15T07:23:00;6.87;;;5.70;;
4754;SDS011;2391;47.212;7.542;2022-11-15T07:25:28;7.00;;;5.83;;
4754;SDS011;2391;47.212;7.542;2022-11-15T07:27:55;6.00;;;5.17;;
4754;SDS011;2391;47.212;7.542;2022-11-15T07:30:22;6.67;;;5.43;;
4754;SDS011;2391;47.212;7.542;2022-11-15T07:32:58;5.23;;;4.73;;
4754;SDS011;2391;47.212;7.542;2022-11-15T07:35:26;5.30;;;4.80;;
4754;SDS011;2391;47.212;7.542;2022-11-15T07:37:54;6.10;;;5.40;;
4754;SDS011;2391;47.212;7.542;2022-11-15T07:40:25;5.77;;;5.20;;
4754;SDS011;2391;47.212;7.542;2022-11-15T07:42:58;5.80;;;5.30;;
4754;SDS011;2391;47.212;7.542;2022-11-15T07:45:25;5.90;;;5.10;;
4754;SDS011;2391;47.212;7.542;2022-11-15T07:47:52;5.53;;;5.03;;
4754;SDS011;2391;47.212;7.542;2022-11-15T07:50:18;6.00;;;5.40;;
4754;SDS011;2391;47.212;7.542;2022-11-15T07:52:45;6.27;;;5.33;;
4754;SDS011;2391;47.212;7.542;2022-11-15T07:55:12;6.03;;;5.43;;
4754;SDS011;2391;47.212;7.542;2022-11-15T07:57:38;5.47;;;5.00;;
4754;SDS011;2391;47.212;7.542;2022-11-15T08:00:05;6.23;;;5.40;;
4754;SDS011;2391;47.212;7.542;2022-11-15T08:02:32;5.77;;;5.20;;
4754;SDS011;2391;47.212;7.542;2022-11-15T08:04:58;6.40;;;5.73;;
4754;SDS011;2391;47.212;7.542;2022-11-15T08:07:24;6.13;;;5.60;;
4754;SDS011;2391;47.212;7.542;2022-11-15T08:09:54;6.33;;;5.80;;
4754;SDS011;2391;47.212;7.542;2022-11-15T08:12:21;8.23;;;6.10;;
4754;SDS011;2391;47.212;7.542;2022-11-15T08:14:47;7.70;;;5.90;;
4754;SDS011;2391;47.212;7.542;2022-11-15T08:17:14;5.40;;;5.00;;
4754;SDS011;2391;47.212;7.542;2022-11-15T08:19:40;7.87;;;6.03;;
4754;SDS011;2391;47.212;7.542;2022-11-15T08:22:07;6.63;;;6.13;;
4754;SDS011;2391;47.212;7.542;2022-11-15T08:24:33;7.37;;;6.37;;
4754;SDS011;2391;47.212;7.542;2022-11-15T08:26:59;7.97;;;6.57;;
4754;SDS011;2391;47.212;7.542;2022-11-15T08:29:26;7.10;;;6.40;;
4754;SDS011;2391;47.212;7.542;2022-11-15T08:31:54;8.10;;;6.53;;
4754;SDS011;2391;47.212;7.542;2022-11-15T08:34:21;6.50;;;5.90;;
4754;SDS011;2391;47.212;7.542;2022-11-15T08:36:48;8.33;;;6.50;;
4754;SDS011;2391;47.212;7.542;2022-11-15T08:39:14;8.10;;;6.50;;
4754;SDS011;2391;47.212;7.542;2022-11-15T08:41:40;6.87;;;6.20;;
4754;SDS011;2391;47.212;7.542;2022-11-15T08:44:06;8.40;;;6.77;;
4754;SDS011;2391;47.212;7.542;2022-11-15T08:46:32;7.00;;;6.40;;
4754;SDS011;2391;47.212;7.542;2022-11-15T08:48:58;7.90;;;6.50;;
4754;SDS011;2391;47.212;7.542;2022-11-15T08:51:25;7.27;;;6.30;;
4754;SDS011;2391;47.212;7.542;2022-11-15T08:53:51;6.50;;;5.90;;
4754;SDS011;2391;47.212;7.542;2022-11-15T08:56:17;6.90;;;6.20;;
4754;SDS011;2391;47.212;7.542;2022-11-15T08:58:44;6.67;;;6.07;;
4754;SDS011;2391;47.212;7.542;2022-11-15T09:01:17;6.90;;;6.30;;
4754;SDS011;2391;47.212;7.542;2022-11-15T09:03:44;6.80;;;6.20;;
4754;SDS011;2391;47.212;7.542;2022-11-15T09:06:11;8.27;;;6.50;;
4754;SDS011;2391;47.212;7.542;2022-11-15T09:08:37;7.97;;;7.17;;
4754;SDS011;2391;47.212;7.542;2022-11-15T09:11:05;11.60;;;7.30;;
4754;SDS011;2391;47.212;7.542;2022-11-15T09:13:33;12.03;;;8.70;;
4754;SDS011;2391;47.212;7.542;2022-11-15T09:16:00;9.70;;;7.80;;
4754;SDS011;2391;47.212;7.542;2022-11-15T09:18:27;11.43;;;8.23;;
4754;SDS011;2391;47.212;7.542;2022-11-15T09:20:57;11.00;;;7.97;;
4754;SDS011;2391;47.212;7.542;2022-11-15T09:23:24;9.93;;;7.60;;
4754;SDS011;2391;47.212;7.542;2022-11-15T09:25:52;8.60;;;7.80;;
4754;SDS011;2391;47.212;7.542;2022-11-15T09:28:20;8.87;;;7.97;;
4754;SDS011;2391;47.212;7.542;2022-11-15T09:30:46;9.50;;;8.33;;
4754;SDS011;2391;47.212;7.542;2022-11-15T09:33:12;10.77;;;9.17;;
4754;SDS011;2391;47.212;7.542;2022-11-15T09:35:39;10.37;;;9.03;;
4754;SDS011;2391;47.212;7.542;2022-11-15T09:38:06;14.83;;;8.90;;
4754;SDS011;2391;47.212;7.542;2022-11-15T09:40:32;13.53;;;9.97;;
4754;SDS011;2391;47.212;7.542;2022-11-15T09:43:08;14.90;;;10.33;;
4754;SDS011;2391;47.212;7.542;2022-11-15T09:50:52;14.07;;;8.60;;
4754;SDS011;2391;47.212;7.542;2022-11-15T09:56:14;10.97;;;9.77;;
4754;SDS011;2391;47.212;7.542;2022-11-15T10:04:30;11.07;;;9.97;;
4754;SDS011;2391;47.212;7.542;2022-11-15T10:07:06;9.33;;;8.33;;
4754;SDS011;2391;47.212;7.542;2022-11-15T10:09:42;12.10;;;9.40;;
4754;SDS011;2391;47.212;7.542;2022-11-15T10:12:15;9.90;;;8.87;;
4754;SDS011;2391;47.212;7.542;2022-11-15T10:14:43;13.40;;;11.00;;
4754;SDS011;2391;47.212;7.542;2022-11-15T10:22:40;11.63;;;9.40;;
4754;SDS011;2391;47.212;7.542;2022-11-15T10:27:38;11.03;;;9.17;;
4754;SDS011;2391;47.212;7.542;2022-11-15T10:30:10;10.97;;;9.10;;
4754;SDS011;2391;47.212;7.542;2022-11-15T10:32:42;10.73;;;9.10;;
4754;SDS011;2391;47.212;7.542;2022-11-15T10:35:42;12.83;;;8.93;;
4754;SDS011;2391;47.212;7.542;2022-11-15T10:37:48;13.27;;;9.20;;
4754;SDS011;2391;47.212;7.542;2022-11-15T10:40:19;12.43;;;8.77;;
4754;SDS011;2391;47.212;7.542;2022-11-15T10:42:47;12.03;;;8.43;;
4754;SDS011;2391;47.212;7.542;2022-11-15T10:45:30;9.10;;;8.20;;
4754;SDS011;2391;47.212;7.542;2022-11-15T10:50:46;10.40;;;9.30;;
4754;SDS011;2391;47.212;7.542;2022-11-15T10:53:19;17.33;;;9.27;;
4754;SDS011;2391;47.212;7.542;2022-11-15T10:55:47;10.80;;;9.40;;
4754;SDS011;2391;47.212;7.542;2022-11-15T10:58:23;9.00;;;8.20;;
4754;SDS011;2391;47.212;7.542;2022-11-15T11:03:42;10.23;;;8.67;;
4754;SDS011;2391;47.212;7.542;2022-11-15T11:06:14;10.33;;;8.57;;
4754;SDS011;2391;47.212;7.542;2022-11-15T11:08:58;11.60;;;9.67;;
4754;SDS011;2391;47.212;7.542;2022-11-15T11:11:48;13.70;;;9.57;;
4754;SDS011;2391;47.212;7.542;2022-11-15T11:14:23;23.00;;;9.47;;
4754;SDS011;2391;47.212;7.542;2022-11-15T11:22:20;12.53;;;9.80;;
4754;SDS011;2391;47.212;7.542;2022-11-15T11:24:56;13.50;;;9.67;;
4754;SDS011;2391;47.212;7.542;2022-11-15T11:27:45;12.37;;;9.20;;
4754;SDS011;2391;47.212;7.542;2022-11-15T11:30:23;16.70;;;11.10;;
4754;SDS011;2391;47.212;7.542;2022-11-15T11:40:35;11.20;;;9.70;;
4754;SDS011;2391;47.212;7.542;2022-11-15T11:43:16;14.17;;;11.00;;
4754;SDS011;2391;47.212;7.542;2022-11-15T11:48:34;12.73;;;11.13;;
4754;SDS011;2391;47.212;7.542;2022-11-15T11:51:03;14.70;;;10.57;;
4754;SDS011;2391;47.212;7.542;2022-11-15T11:53:44;16.00;;;10.80;;
4754;SDS011;2391;47.212;7.542;2022-11-15T11:56:16;13.27;;;10.00;;
4754;SDS011;2391;47.212;7.542;2022-11-15T11:58:44;14.53;;;10.53;;
4754;SDS011;2391;47.212;7.542;2022-11-15T12:01:55;14.00;;;11.47;;
4754;SDS011;2391;47.212;7.542;2022-11-15T12:06:31;13.90;;;10.67;;
4754;SDS011;2391;47.212;7.542;2022-11-15T12:17:11;16.63;;;10.90;;
4754;SDS011;2391;47.212;7.542;2022-11-15T12:19:39;10.90;;;8.93;;
4754;SDS011;2391;47.212;7.542;2022-11-15T12:22:17;11.93;;;9.03;;
4754;SDS011;2391;47.212;7.542;2022-11-15T12:24:46;12.93;;;9.20;;
4754;SDS011;2391;47.212;7.542;2022-11-15T12:27:33;12.87;;;8.73;;
4754;SDS011;2391;47.212;7.542;2022-11-15T12:30:17;11.90;;;8.50;;
4754;SDS011;2391;47.212;7.542;2022-11-15T12:32:58;11.67;;;8.80;;
4754;SDS011;2391;47.212;7.542;2022-11-15T12:38:10;9.83;;;8.40;;
4754;SDS011;2391;47.212;7.542;2022-11-15T12:40:39;9.70;;;7.57;;
4754;SDS011;2391;47.212;7.542;2022-11-15T12:46:10;14.67;;;8.73;;
4754;SDS011;2391;47.212;7.542;2022-11-15T12:48:58;12.40;;;9.57;;
4754;SDS011;2391;47.212;7.542;2022-11-15T13:02:26;11.40;;;8.90;;
4754;SDS011;2391;47.212;7.542;2022-11-15T13:05:46;9.30;;;7.73;;
4754;SDS011;2391;47.212;7.542;2022-11-15T13:15:33;16.70;;;9.77;;
4754;SDS011;2391;47.212;7.542;2022-11-15T13:18:25;13.97;;;11.00;;
4754;SDS011;2391;47.212;7.542;2022-11-15T13:20:58;18.53;;;13.30;;
4754;SDS011;2391;47.212;7.542;2022-11-15T13:23:25;19.63;;;15.33;;
4754;SDS011;2391;47.212;7.542;2022-11-15T13:28:32;19.47;;;13.47;;
4754;SDS011;2391;47.212;7.542;2022-11-15T13:33:59;19.70;;;14.83;;
4754;SDS011;2391;47.212;7.542;2022-11-15T13:36:31;20.77;;;15.47;;
4754;SDS011;2391;47.212;7.542;2022-11-15T13:39:04;22.60;;;15.60;;
4754;SDS011;2391;47.212;7.542;2022-11-15T13:41:36;20.87;;;14.50;;
4754;SDS011;2391;47.212;7.542;2022-11-15T13:44:02;19.97;;;14.77;;
4754;SDS011;2391;47.212;7.542;2022-11-15T13:46:33;20.60;;;15.93;;
4754;SDS011;2391;47.212;7.542;2022-11-15T13:49:07;22.70;;;16.77;;
4754;SDS011;2391;47.212;7.542;2022-11-15T13:51:38;21.53;;;14.30;;
4754;SDS011;2391;47.212;7.542;2022-11-15T13:56:56;20.30;;;15.00;;
4754;SDS011;2391;47.212;7.542;2022-11-15T14:02:10;21.03;;;15.03;;
4754;SDS011;2391;47.212;7.542;2022-11-15T14:04:50;16.73;;;13.70;;
4754;SDS011;2391;47.212;7.542;2022-11-15T14:07:16;20.27;;;14.80;;
4754;SDS011;2391;47.212;7.542;2022-11-15T14:09:45;23.73;;;16.00;;
4754;SDS011;2391;47.212;7.542;2022-11-15T14:15:17;19.27;;;13.50;;
4754;SDS011;2391;47.212;7.542;2022-11-15T14:20:01;17.20;;;13.03;;
4754;SDS011;2391;47.212;7.542;2022-11-15T14:22:30;19.07;;;13.50;;
4754;SDS011;2391;47.212;7.542;2022-11-15T14:27:33;16.57;;;13.27;;
4754;SDS011;2391;47.212;7.542;2022-11-15T14:30:00;25.03;;;13.33;;
4754;SDS011;2391;47.212;7.542;2022-11-15T14:32:27;18.20;;;13.57;;
4754;SDS011;2391;47.212;7.542;2022-11-15T14:37:25;22.67;;;14.10;;
4754;SDS011;2391;47.212;7.542;2022-11-15T14:39:53;19.97;;;14.07;;
4754;SDS011;2391;47.212;7.542;2022-11-15T14:42:21;20.30;;;14.70;;
4754;SDS011;2391;47.212;7.542;2022-11-15T14:44:48;20.87;;;14.10;;
4754;SDS011;2391;47.212;7.542;2022-11-15T14:47:15;15.90;;;12.03;;
4754;SDS011;2391;47.212;7.542;2022-11-15T14:49:41;20.83;;;13.70;;
4754;SDS011;2391;47.212;7.542;2022-11-15T14:52:16;17.00;;;13.40;;
4754;SDS011;2391;47.212;7.542;2022-11-15T14:54:54;17.87;;;13.20;;
4754;SDS011;2391;47.212;7.542;2022-11-15T14:57:23;20.20;;;14.70;;
4754;SDS011;2391;47.212;7.542;2022-11-15T14:59:50;18.57;;;13.20;;
4754;SDS011;2391;47.212;7.542;2022-11-15T15:02:20;20.97;;;14.30;;
4754;SDS011;2391;47.212;7.542;2022-11-15T15:04:48;21.50;;;13.80;;
4754;SDS011;2391;47.212;7.542;2022-11-15T15:07:16;21.77;;;15.17;;
4754;SDS011;2391;47.212;7.542;2022-11-15T15:09:43;26.10;;;14.70;;
4754;SDS011;2391;47.212;7.542;2022-11-15T15:12:12;25.10;;;14.87;;
4754;SDS011;2391;47.212;7.542;2022-11-15T15:14:42;23.60;;;14.10;;
4754;SDS011;2391;47.212;7.542;2022-11-15T15:17:09;26.83;;;14.83;;
4754;SDS011;2391;47.212;7.542;2022-11-15T15:19:35;21.63;;;14.90;;
4754;SDS011;2391;47.212;7.542;2022-11-15T15:22:01;25.93;;;16.00;;
4754;SDS011;2391;47.212;7.542;2022-11-15T15:24:28;23.27;;;15.67;;
4754;SDS011;2391;47.212;7.542;2022-11-15T15:26:54;22.83;;;14.97;;
4754;SDS011;2391;47.212;7.542;2022-11-15T15:29:20;23.97;;;15.23;;
4754;SDS011;2391;47.212;7.542;2022-11-15T15:31:46;23.23;;;14.83;;
4754;SDS011;2391;47.212;7.542;2022-11-15T15:34:12;22.67;;;16.27;;
4754;SDS011;2391;47.212;7.542;2022-11-15T15:36:39;25.00;;;16.87;;
4754;SDS011;2391;47.212;7.542;2022-11-15T15:39:07;22.40;;;16.20;;
4754;SDS011;2391;47.212;7.542;2022-11-15T15:41:34;22.40;;;15.27;;
4754;SDS011;2391;47.212;7.542;2022-11-15T15:44:01;22.93;;;15.80;;
4754;SDS011;2391;47.212;7.542;2022-11-15T15:46:27;24.80;;;16.17;;
4754;SDS011;2391;47.212;7.542;2022-11-15T15:48:53;21.10;;;15.43;;
4754;SDS011;2391;47.212;7.542;2022-11-15T15:51:19;20.20;;;15.67;;
4754;SDS011;2391;47.212;7.542;2022-11-15T15:53:45;23.67;;;16.50;;
4754;SDS011;2391;47.212;7.542;2022-11-15T15:56:12;23.13;;;16.10;;
4754;SDS011;2391;47.212;7.542;2022-11-15T15:58:38;23.20;;;16.00;;
4754;SDS011;2391;47.212;7.542;2022-11-15T16:01:05;24.93;;;15.80;;
4754;SDS011;2391;47.212;7.542;2022-11-15T16:03:31;20.73;;;15.27;;
4754;SDS011;2391;47.212;7.542;2022-11-15T16:05:57;22.03;;;15.50;;
4754;SDS011;2391;47.212;7.542;2022-11-15T16:08:24;23.57;;;16.00;;
4754;SDS011;2391;47.212;7.542;2022-11-15T16:10:52;29.07;;;17.50;;
4754;SDS011;2391;47.212;7.542;2022-11-15T16:13:19;24.90;;;16.50;;
4754;SDS011;2391;47.212;7.542;2022-11-15T16:15:52;33.10;;;16.77;;
4754;SDS011;2391;47.212;7.542;2022-11-15T16:18:15;23.97;;;17.10;;
4754;SDS011;2391;47.212;7.542;2022-11-15T16:20:46;30.80;;;17.10;;
4754;SDS011;2391;47.212;7.542;2022-11-15T16:23:17;24.27;;;17.07;;
4754;SDS011;2391;47.212;7.542;2022-11-15T16:30:47;27.00;;;16.70;;
4754;SDS011;2391;47.212;7.542;2022-11-15T16:33:14;24.47;;;16.20;;
4754;SDS011;2391;47.212;7.542;2022-11-15T16:35:42;25.77;;;16.80;;
4754;SDS011;2391;47.212;7.542;2022-11-15T16:38:13;25.13;;;17.27;;
4754;SDS011;2391;47.212;7.542;2022-11-15T16:40:40;24.50;;;16.33;;
4754;SDS011;2391;47.212;7.542;2022-11-15T16:43:06;25.03;;;15.80;;
4754;SDS011;2391;47.212;7.542;2022-11-15T16:45:36;24.80;;;16.00;;
4754;SDS011;2391;47.212;7.542;2022-11-15T16:48:02;22.80;;;16.10;;
4754;SDS011;2391;47.212;7.542;2022-11-15T16:50:30;24.13;;;16.10;;
4754;SDS011;2391;47.212;7.542;2022-11-15T16:52:59;30.03;;;17.40;;
4754;SDS011;2391;47.212;7.542;2022-11-15T16:55:27;25.10;;;17.77;;
4754;SDS011;2391;47.212;7.542;2022-11-15T16:57:55;25.43;;;16.90;;
4754;SDS011;2391;47.212;7.542;2022-11-15T17:00:26;23.87;;;16.77;;
4754;SDS011;2391;47.212;7.542;2022-11-15T17:02:53;26.13;;;17.50;;
4754;SDS011;2391;47.212;7.542;2022-11-15T17:05:21;32.00;;;17.47;;
4754;SDS011;2391;47.212;7.542;2022-11-15T17:07:49;28.10;;;18.77;;
4754;SDS011;2391;47.212;7.542;2022-11-15T17:10:22;30.87;;;19.07;;
4754;SDS011;2391;47.212;7.542;2022-11-15T17:12:50;31.17;;;19.40;;
4754;SDS011;2391;47.212;7.542;2022-11-15T17:15:17;26.77;;;17.77;;
4754;SDS011;2391;47.212;7.542;2022-11-15T17:17:44;28.03;;;18.60;;
4754;SDS011;2391;47.212;7.542;2022-11-15T17:20:19;25.73;;;16.97;;
4754;SDS011;2391;47.212;7.542;2022-11-15T17:22:47;27.53;;;17.70;;
4754;SDS011;2391;47.212;7.542;2022-11-15T17:25:13;27.13;;;17.13;;
4754;SDS011;2391;47.212;7.542;2022-11-15T17:27:39;30.40;;;18.43;;
4754;SDS011;2391;47.212;7.542;2022-11-15T17:30:06;30.23;;;18.93;;
4754;SDS011;2391;47.212;7.542;2022-11-15T17:32:36;25.70;;;17.30;;
4754;SDS011;2391;47.212;7.542;2022-11-15T17:35:03;23.10;;;16.47;;